Iberica Hav — C6YI3 — position and weather

sailwx.info

Track history (hours):
 
Tides and Currents Weather Stations Pressure Air Temp Water Temp Dewpoint Dewpoint Depression Visibility Wind Speed Wind Dir Waves Ship Positions

Iberica Hav

Last reported at 2016-Aug-27 02:23 UTC. Time now 2016-Aug-27 02:54 UTC.
Position N 51°46' E 003°17'.

Length 88 m; draft 3.2 m.

Type: Cargo ship. MMSI: 311034400.

Date/timePositionNaut miles runAvg speedWind from/ knotsBaromVisibWave heightAir tempDewpointWater temp
2016-Aug-27 02:23N 51°46' E 003°17'0 0.0
2016-Aug-27 01:30N 51°46' E 003°17'0 0.0
2016-Aug-27 00:32N 51°46' E 003°17'0 0.0
2016-Aug-26 23:23N 51°46' E 003°17'0 0.1
2016-Aug-26 22:23N 51°46' E 003°17'0 0.0
2016-Aug-26 21:33N 51°46' E 003°17'0 0.0
2016-Aug-26 20:33N 51°46' E 003°17'0 0.0
2016-Aug-26 19:33N 51°46' E 003°17'9 8.6
2016-Aug-26 18:33N 51°52' E 003°07'9 9.2
2016-Aug-26 17:33N 51°58' E 002°56'9 9.3
2016-Aug-26 16:33N 52°05' E 002°46'10 9.5
2016-Aug-26 15:33N 52°13' E 002°36'43 9.8
2016-Aug-26 11:08N 52°46' E 001°51'5 8.8
2016-Aug-26 10:33N 52°50' E 001°46'8 8.2
2016-Aug-26 09:33N 52°56' E 001°37'8 7.8
2016-Aug-26 08:33N 53°02' E 001°29'7 7.4
2016-Aug-26 07:34N 53°08' E 001°21'78 8.5
2016-Aug-25 22:23N 54°08' W 000°02'910.4
2016-Aug-25 21:33N 54°15' W 000°11'1010.3
2016-Aug-25 20:33N 54°23' W 000°22'4 0.2
2016-Aug-24 20:34N 54°26' W 000°26'9 9.0
2016-Aug-24 19:33N 54°19' W 000°16'9 9.3
2016-Aug-24 18:33N 54°12' W 000°06'9 9.4
2016-Aug-24 17:33N 54°04' E 000°03'1610.7
2016-Aug-24 16:04N 53°49' E 000°14'611.2
2016-Aug-24 15:33N 53°44' E 000°18'10 9.9
2016-Aug-24 14:31N 53°34' E 000°17'1110.8
2016-Aug-24 13:33N 53°35' W 000°01'1212.4
2016-Aug-24 12:33N 53°43' W 000°17'7 0.2
2016-Aug-22 19:30N 53°42' W 000°28'8 9.0
2016-Aug-22 18:34N 53°41' W 000°14'1110.9
2016-Aug-22 17:33N 53°35' E 000°02'8 7.9
2016-Aug-22 16:33N 53°33' E 000°15'6 5.1
2016-Aug-22 15:23N 53°33' E 000°25'153 8.1
2016-Aug-21 20:32N 53°48' E 004°42'6 6.5
2016-Aug-21 19:33N 53°48' E 004°53'8 6.5
2016-Aug-21 18:20N 53°49' E 005°07'6 7.2
2016-Aug-21 17:32N 53°50' E 005°16'8 8.0
2016-Aug-21 16:34N 53°50' E 005°29'9 8.9
2016-Aug-21 15:33N 53°51' E 005°45'19 9.1
2016-Aug-21 13:25N 53°53' E 006°17'8 8.5
2016-Aug-21 12:32N 53°54' E 006°30'7 7.7
2016-Aug-21 11:33N 53°54' E 006°43'7 7.1
2016-Aug-21 10:33N 53°56' E 006°55'7 7.0
2016-Aug-21 09:31N 53°57' E 007°07'10 7.3
2016-Aug-21 08:10N 53°59' E 007°23'5 8.0
2016-Aug-21 07:33N 53°60' E 007°31'9 9.0
2016-Aug-21 06:33N 54°01' E 007°46'10 9.6
2016-Aug-21 05:34N 54°01' E 008°03'1010.3
2016-Aug-21 04:33N 54°00' E 008°20'1111.2
2016-Aug-21 03:33N 53°57' E 008°39'9 8.7
2016-Aug-21 02:34N 53°51' E 008°48'7 7.4
2016-Aug-21 01:34N 53°51' E 009°01'5 5.3
2016-Aug-21 00:33N 53°54' E 009°09'6 6.0
2016-Aug-20 23:33N 53°58' E 009°16'11 8.0
2016-Aug-20 22:10N 54°09' E 009°21'5 8.4
2016-Aug-20 21:33N 54°11' E 009°29'19 6.2
2016-Aug-20 18:28N 54°21' E 009°57'6 6.6
2016-Aug-20 17:34N 54°22' E 010°07'2 2.2
2016-Aug-20 16:34N 54°23' E 010°11'17 8.4
2016-Aug-20 14:33N 54°33' E 010°34'9 8.8
2016-Aug-20 13:34N 54°33' E 010°49'8 8.4
2016-Aug-20 12:33N 54°34' E 011°04'10 9.6
2016-Aug-20 11:33N 54°33' E 011°20'9 9.5
2016-Aug-20 10:34N 54°31' E 011°36'9 8.9
2016-Aug-20 09:34N 54°31' E 011°52'9 8.7
2016-Aug-20 08:33N 54°31' E 012°07'9 9.0
2016-Aug-20 07:33N 54°33' E 012°22'12 9.1
2016-Aug-20 06:13N 54°35' E 012°42'6 9.6
2016-Aug-20 05:33N 54°37' E 012°53'1110.2
2016-Aug-20 04:30N 54°40' E 013°11'9 9.4
2016-Aug-20 03:34N 54°42' E 013°26'9 9.1
2016-Aug-20 02:34N 54°36' E 013°38'9 8.9
2016-Aug-20 01:34N 54°29' E 013°47'9 8.9
2016-Aug-20 00:33N 54°21' E 013°55'9 8.9
2016-Aug-19 23:32N 54°13' E 014°03'9 8.8
2016-Aug-19 22:33N 54°06' E 014°10'9 9.0
2016-Aug-19 21:33N 53°58' E 014°16'8 7.5
2016-Aug-19 20:33N 53°50' E 014°18'9 9.3
2016-Aug-19 19:34N 53°43' E 014°28'9 9.2
2016-Aug-19 18:34N 53°35' E 014°36'8 8.3
2016-Aug-19 17:34N 53°27' E 014°36'3 2.7
2016-Aug-19 16:31N 53°24' E 014°37'0 0.0
2016-Aug-19 15:31N 53°24' E 014°37'0 0.0
2016-Aug-19 14:28N 53°24' E 014°37'0 0.0
2016-Aug-19 13:31N 53°24' E 014°37'0 0.0
2016-Aug-19 12:31N 53°24' E 014°37'0 0.0
2016-Aug-19 11:31N 53°24' E 014°37'0 0.0
2016-Aug-19 10:31N 53°24' E 014°37'0 0.0
2016-Aug-19 08:22N 53°24' E 014°37'0 0.0
2016-Aug-19 07:31N 53°24' E 014°37'0 0.0
2016-Aug-19 06:31N 53°24' E 014°37'0 0.0
2016-Aug-19 05:31N 53°24' E 014°37'0 0.0
2016-Aug-19 04:31N 53°24' E 014°37'0 0.0
2016-Aug-19 03:31N 53°24' E 014°37'0 0.0
2016-Aug-19 02:31N 53°24' E 014°37'0 0.0
2016-Aug-19 01:31N 53°24' E 014°37'0 0.0
2016-Aug-19 00:31N 53°24' E 014°37'0 0.0
2016-Aug-18 23:31N 53°24' E 014°37'0 0.0
2016-Aug-18 22:31N 53°24' E 014°37'0 0.0
2016-Aug-18 21:28N 53°24' E 014°37'0 0.0
2016-Aug-18 20:31N 53°24' E 014°37'0 0.0
2016-Aug-18 19:31N 53°24' E 014°37'0 0.0
2016-Aug-18 18:31N 53°24' E 014°37'0 0.0
2016-Aug-18 17:25N 53°24' E 014°37'0 0.0
2016-Aug-18 16:31N 53°24' E 014°37'0 0.0
2016-Aug-18 15:31N 53°24' E 014°37'0 0.0
2016-Aug-18 14:28N 53°24' E 014°37'0 0.0
2016-Aug-18 13:31N 53°24' E 014°37'0 0.0
2016-Aug-18 12:31N 53°24' E 014°37'0 0.0
2016-Aug-18 11:31N 53°24' E 014°37'0 0.0
2016-Aug-18 10:31N 53°24' E 014°37'0 0.0
2016-Aug-18 09:31N 53°24' E 014°37'0 0.0
2016-Aug-18 08:31N 53°24' E 014°37'0 0.0
2016-Aug-18 07:28N 53°24' E 014°37'0 0.0
2016-Aug-18 06:31N 53°24' E 014°37'0 0.0
2016-Aug-18 05:31N 53°24' E 014°37'0 0.0
2016-Aug-18 04:31N 53°24' E 014°37'0 0.0
2016-Aug-18 03:31N 53°24' E 014°37'0 0.0
2016-Aug-18 02:31N 53°24' E 014°37'0 0.0
2016-Aug-18 01:31N 53°24' E 014°37'0 0.0
2016-Aug-18 00:31N 53°24' E 014°37'0 0.0
2016-Aug-17 23:31N 53°24' E 014°37'0 0.0
2016-Aug-17 22:31N 53°24' E 014°37'0 0.0
2016-Aug-17 21:31N 53°24' E 014°37'0 0.0
2016-Aug-17 20:31N 53°24' E 014°37'0 0.0
2016-Aug-17 19:31N 53°24' E 014°37'0 0.0
2016-Aug-17 18:31N 53°24' E 014°37'0 0.0
2016-Aug-17 17:31N 53°24' E 014°37'0 0.0
2016-Aug-17 16:28N 53°24' E 014°37'0 0.0
2016-Aug-17 15:31N 53°24' E 014°37'0 0.0
2016-Aug-17 14:31N 53°24' E 014°37'0 0.0
2016-Aug-17 13:31N 53°24' E 014°37'0 0.0
2016-Aug-17 12:31N 53°24' E 014°37'0 0.0
2016-Aug-17 11:31N 53°24' E 014°37'0 0.0
2016-Aug-17 10:31N 53°24' E 014°37'0 0.0
2016-Aug-17 09:31N 53°24' E 014°37'0 0.0
2016-Aug-17 08:31N 53°24' E 014°37'0 0.0
2016-Aug-17 07:31N 53°24' E 014°37'0 0.0
2016-Aug-17 06:31N 53°24' E 014°37'0 0.0
2016-Aug-17 05:31N 53°24' E 014°37'0 0.0
2016-Aug-17 04:28N 53°24' E 014°37'0 0.0
2016-Aug-17 03:31N 53°24' E 014°37'0 0.0
2016-Aug-17 02:28N 53°24' E 014°37'  
Track history (hours):
 
Tides and Currents Weather Stations Pressure Air Temp Water Temp Dewpoint Dewpoint Depression Visibility Wind Speed Wind Dir Waves Ship Positions

Iberica Hav

Last reported at 2016-Aug-27 02:23 UTC. Time now 2016-Aug-27 02:54 UTC.
Position N 51°46' E 003°17'.

Length 88 m; draft 3.2 m.

Type: Cargo ship. MMSI: 311034400.

Date/timePositionNaut miles runAvg speedWind from/ knotsBaromVisibWave heightAir tempDewpointWater temp
2016-Aug-27 02:23N 51°46' E 003°17'0 0.0
2016-Aug-27 01:30N 51°46' E 003°17'0 0.0
2016-Aug-27 00:32N 51°46' E 003°17'0 0.0
2016-Aug-26 23:23N 51°46' E 003°17'0 0.1
2016-Aug-26 22:23N 51°46' E 003°17'0 0.0
2016-Aug-26 21:33N 51°46' E 003°17'0 0.0
2016-Aug-26 20:33N 51°46' E 003°17'0 0.0
2016-Aug-26 19:33N 51°46' E 003°17'9 8.6
2016-Aug-26 18:33N 51°52' E 003°07'9 9.2
2016-Aug-26 17:33N 51°58' E 002°56'9 9.3
2016-Aug-26 16:33N 52°05' E 002°46'10 9.5
2016-Aug-26 15:33N 52°13' E 002°36'43 9.8
2016-Aug-26 11:08N 52°46' E 001°51'5 8.8
2016-Aug-26 10:33N 52°50' E 001°46'8 8.2
2016-Aug-26 09:33N 52°56' E 001°37'8 7.8
2016-Aug-26 08:33N 53°02' E 001°29'7 7.4
2016-Aug-26 07:34N 53°08' E 001°21'78 8.5
2016-Aug-25 22:23N 54°08' W 000°02'910.4
2016-Aug-25 21:33N 54°15' W 000°11'1010.3
2016-Aug-25 20:33N 54°23' W 000°22'4 0.2
2016-Aug-24 20:34N 54°26' W 000°26'9 9.0
2016-Aug-24 19:33N 54°19' W 000°16'9 9.3
2016-Aug-24 18:33N 54°12' W 000°06'9 9.4
2016-Aug-24 17:33N 54°04' E 000°03'1610.7
2016-Aug-24 16:04N 53°49' E 000°14'611.2
2016-Aug-24 15:33N 53°44' E 000°18'10 9.9
2016-Aug-24 14:31N 53°34' E 000°17'1110.8
2016-Aug-24 13:33N 53°35' W 000°01'1212.4
2016-Aug-24 12:33N 53°43' W 000°17'7 0.2
2016-Aug-22 19:30N 53°42' W 000°28'8 9.0
2016-Aug-22 18:34N 53°41' W 000°14'1110.9
2016-Aug-22 17:33N 53°35' E 000°02'8 7.9
2016-Aug-22 16:33N 53°33' E 000°15'6 5.1
2016-Aug-22 15:23N 53°33' E 000°25'153 8.1
2016-Aug-21 20:32N 53°48' E 004°42'6 6.5
2016-Aug-21 19:33N 53°48' E 004°53'8 6.5
2016-Aug-21 18:20N 53°49' E 005°07'6 7.2
2016-Aug-21 17:32N 53°50' E 005°16'8 8.0
2016-Aug-21 16:34N 53°50' E 005°29'9 8.9
2016-Aug-21 15:33N 53°51' E 005°45'19 9.1
2016-Aug-21 13:25N 53°53' E 006°17'8 8.5
2016-Aug-21 12:32N 53°54' E 006°30'7 7.7
2016-Aug-21 11:33N 53°54' E 006°43'7 7.1
2016-Aug-21 10:33N 53°56' E 006°55'7 7.0
2016-Aug-21 09:31N 53°57' E 007°07'10 7.3
2016-Aug-21 08:10N 53°59' E 007°23'5 8.0
2016-Aug-21 07:33N 53°60' E 007°31'9 9.0
2016-Aug-21 06:33N 54°01' E 007°46'10 9.6
2016-Aug-21 05:34N 54°01' E 008°03'1010.3
2016-Aug-21 04:33N 54°00' E 008°20'1111.2
2016-Aug-21 03:33N 53°57' E 008°39'9 8.7
2016-Aug-21 02:34N 53°51' E 008°48'7 7.4
2016-Aug-21 01:34N 53°51' E 009°01'5 5.3
2016-Aug-21 00:33N 53°54' E 009°09'6 6.0
2016-Aug-20 23:33N 53°58' E 009°16'11 8.0
2016-Aug-20 22:10N 54°09' E 009°21'5 8.4
2016-Aug-20 21:33N 54°11' E 009°29'19 6.2
2016-Aug-20 18:28N 54°21' E 009°57'6 6.6
2016-Aug-20 17:34N 54°22' E 010°07'2 2.2
2016-Aug-20 16:34N 54°23' E 010°11'17 8.4
2016-Aug-20 14:33N 54°33' E 010°34'9 8.8
2016-Aug-20 13:34N 54°33' E 010°49'8 8.4
2016-Aug-20 12:33N 54°34' E 011°04'10 9.6
2016-Aug-20 11:33N 54°33' E 011°20'9 9.5
2016-Aug-20 10:34N 54°31' E 011°36'9 8.9
2016-Aug-20 09:34N 54°31' E 011°52'9 8.7
2016-Aug-20 08:33N 54°31' E 012°07'9 9.0
2016-Aug-20 07:33N 54°33' E 012°22'12 9.1
2016-Aug-20 06:13N 54°35' E 012°42'6 9.6
2016-Aug-20 05:33N 54°37' E 012°53'1110.2
2016-Aug-20 04:30N 54°40' E 013°11'9 9.4
2016-Aug-20 03:34N 54°42' E 013°26'9 9.1
2016-Aug-20 02:34N 54°36' E 013°38'9 8.9
2016-Aug-20 01:34N 54°29' E 013°47'9 8.9
2016-Aug-20 00:33N 54°21' E 013°55'9 8.9
2016-Aug-19 23:32N 54°13' E 014°03'9 8.8
2016-Aug-19 22:33N 54°06' E 014°10'9 9.0
2016-Aug-19 21:33N 53°58' E 014°16'8 7.5
2016-Aug-19 20:33N 53°50' E 014°18'9 9.3
2016-Aug-19 19:34N 53°43' E 014°28'9 9.2
2016-Aug-19 18:34N 53°35' E 014°36'8 8.3
2016-Aug-19 17:34N 53°27' E 014°36'3 2.7
2016-Aug-19 16:31N 53°24' E 014°37'0 0.0
2016-Aug-19 15:31N 53°24' E 014°37'0 0.0
2016-Aug-19 14:28N 53°24' E 014°37'0 0.0
2016-Aug-19 13:31N 53°24' E 014°37'0 0.0
2016-Aug-19 12:31N 53°24' E 014°37'0 0.0
2016-Aug-19 11:31N 53°24' E 014°37'0 0.0
2016-Aug-19 10:31N 53°24' E 014°37'0 0.0
2016-Aug-19 08:22N 53°24' E 014°37'0 0.0
2016-Aug-19 07:31N 53°24' E 014°37'0 0.0
2016-Aug-19 06:31N 53°24' E 014°37'0 0.0
2016-Aug-19 05:31N 53°24' E 014°37'0 0.0
2016-Aug-19 04:31N 53°24' E 014°37'0 0.0
2016-Aug-19 03:31N 53°24' E 014°37'0 0.0
2016-Aug-19 02:31N 53°24' E 014°37'0 0.0
2016-Aug-19 01:31N 53°24' E 014°37'0 0.0
2016-Aug-19 00:31N 53°24' E 014°37'0 0.0
2016-Aug-18 23:31N 53°24' E 014°37'0 0.0
2016-Aug-18 22:31N 53°24' E 014°37'0 0.0
2016-Aug-18 21:28N 53°24' E 014°37'0 0.0
2016-Aug-18 20:31N 53°24' E 014°37'0 0.0
2016-Aug-18 19:31N 53°24' E 014°37'0 0.0
2016-Aug-18 18:31N 53°24' E 014°37'0 0.0
2016-Aug-18 17:25N 53°24' E 014°37'0 0.0
2016-Aug-18 16:31N 53°24' E 014°37'0 0.0
2016-Aug-18 15:31N 53°24' E 014°37'0 0.0
2016-Aug-18 14:28N 53°24' E 014°37'0 0.0
2016-Aug-18 13:31N 53°24' E 014°37'0 0.0
2016-Aug-18 12:31N 53°24' E 014°37'0 0.0
2016-Aug-18 11:31N 53°24' E 014°37'0 0.0
2016-Aug-18 10:31N 53°24' E 014°37'0 0.0
2016-Aug-18 09:31N 53°24' E 014°37'0 0.0
2016-Aug-18 08:31N 53°24' E 014°37'0 0.0
2016-Aug-18 07:28N 53°24' E 014°37'0 0.0
2016-Aug-18 06:31N 53°24' E 014°37'0 0.0
2016-Aug-18 05:31N 53°24' E 014°37'0 0.0
2016-Aug-18 04:31N 53°24' E 014°37'0 0.0
2016-Aug-18 03:31N 53°24' E 014°37'0 0.0
2016-Aug-18 02:31N 53°24' E 014°37'0 0.0
2016-Aug-18 01:31N 53°24' E 014°37'0 0.0
2016-Aug-18 00:31N 53°24' E 014°37'0 0.0
2016-Aug-17 23:31N 53°24' E 014°37'0 0.0
2016-Aug-17 22:31N 53°24' E 014°37'0 0.0
2016-Aug-17 21:31N 53°24' E 014°37'0 0.0
2016-Aug-17 20:31N 53°24' E 014°37'0 0.0
2016-Aug-17 19:31N 53°24' E 014°37'0 0.0
2016-Aug-17 18:31N 53°24' E 014°37'0 0.0
2016-Aug-17 17:31N 53°24' E 014°37'0 0.0
2016-Aug-17 16:28N 53°24' E 014°37'0 0.0
2016-Aug-17 15:31N 53°24' E 014°37'0 0.0
2016-Aug-17 14:31N 53°24' E 014°37'0 0.0
2016-Aug-17 13:31N 53°24' E 014°37'0 0.0
2016-Aug-17 12:31N 53°24' E 014°37'0 0.0
2016-Aug-17 11:31N 53°24' E 014°37'0 0.0
2016-Aug-17 10:31N 53°24' E 014°37'0 0.0
2016-Aug-17 09:31N 53°24' E 014°37'0 0.0
2016-Aug-17 08:31N 53°24' E 014°37'0 0.0
2016-Aug-17 07:31N 53°24' E 014°37'0 0.0
2016-Aug-17 06:31N 53°24' E 014°37'0 0.0
2016-Aug-17 05:31N 53°24' E 014°37'0 0.0
2016-Aug-17 04:28N 53°24' E 014°37'0 0.0
2016-Aug-17 03:31N 53°24' E 014°37'0 0.0
2016-Aug-17 02:28N 53°24' E 014°37'  

Dump ship's entire track history